Time;durP1;ratioP1;P1;durP2;ratioP2;P2;SDS_P1;SDS_P2;PMS_P1;PMS_P2;Temp;Humidity;BMP_temperature;BMP_pressure;BME280_temperature;BME280_humidity;BME280_pressure;Samples;Min_cycle;Max_cycle;Signal;HPM_P1;HPM_P2
2021/10/10 00:01:37;;;;;;;10.60;3.63;;;10.70;98.80;;;;;;5031126;28;20049;-69
2021/10/10 00:04:41;;;;;;;9.90;3.90;;;10.70;98.40;;;;;;5029987;28;20036;-71
2021/10/10 00:07:45;;;;;;;8.63;3.75;;;10.80;98.10;;;;;;5032090;28;20056;-71
2021/10/10 00:10:50;;;;;;;9.13;3.83;;;11.30;96.40;;;;;;5050487;28;20051;-69
2021/10/10 00:13:54;;;;;;;6.57;3.60;;;11.30;96.70;;;;;;5030257;28;20041;-69
2021/10/10 00:16:59;;;;;;;7.30;3.63;;;11.30;97.10;;;;;;5034529;28;20040;-71
2021/10/10 00:20:06;;;;;;;11.57;4.07;;;11.10;97.70;;;;;;5029614;28;20040;-71
2021/10/10 00:23:10;;;;;;;8.23;3.95;;;10.90;98.00;;;;;;5048818;28;20490;-71
2021/10/10 00:26:14;;;;;;;11.00;4.20;;;10.80;98.20;;;;;;5037886;28;20396;-69
2021/10/10 00:29:18;;;;;;;10.45;3.97;;;10.70;98.50;;;;;;5029659;28;20079;-71
2021/10/10 00:32:22;;;;;;;12.88;3.70;;;10.60;98.40;;;;;;5030105;28;20053;-71
2021/10/10 00:35:26;;;;;;;9.13;3.58;;;10.70;97.20;;;;;;5042852;28;20202;-69
2021/10/10 00:38:31;;;;;;;7.80;3.95;;;10.80;97.40;;;;;;5049010;28;20052;-68
2021/10/10 00:41:38;;;;;;;9.77;4.18;;;10.90;97.30;;;;;;5030289;28;20049;-69
2021/10/10 00:44:46;;;;;;;8.32;3.60;;;10.90;97.10;;;;;;5033756;28;20392;-69
2021/10/10 00:47:51;;;;;;;10.07;3.83;;;11.00;97.10;;;;;;5029304;28;20041;-71
2021/10/10 00:50:55;;;;;;;10.32;4.18;;;10.90;97.20;;;;;;5050377;28;20395;-68
2021/10/10 00:53:59;;;;;;;5.68;3.33;;;10.80;97.50;;;;;;5043877;28;20040;-71
2021/10/10 00:57:05;;;;;;;8.75;4.40;;;10.80;97.50;;;;;;5050744;28;20967;-71
2021/10/10 01:00:10;;;;;;;8.57;4.10;;;10.80;98.50;;;;;;5052749;28;20388;-68
2021/10/10 01:03:14;;;;;;;6.68;4.22;;;10.80;98.00;;;;;;5032824;28;20066;-71
2021/10/10 01:06:17;;;;;;;12.10;4.30;;;10.80;98.10;;;;;;5038324;28;20506;-72
2021/10/10 01:09:22;;;;;;;7.15;4.05;;;10.80;98.60;;;;;;5053564;28;20060;-68
2021/10/10 01:12:27;;;;;;;9.40;4.55;;;10.90;98.00;;;;;;5033757;28;20112;-68
2021/10/10 01:15:31;;;;;;;8.57;5.32;;;10.90;98.60;;;;;;5032575;28;20040;-68
2021/10/10 01:18:36;;;;;;;10.40;4.63;;;10.80;99.20;;;;;;5032829;28;20064;-72
2021/10/10 01:21:40;;;;;;;11.63;4.47;;;10.60;99.80;;;;;;5032746;28;20044;-71
2021/10/10 01:24:45;;;;;;;12.10;4.85;;;10.50;99.90;;;;;;5037203;28;20064;-71
2021/10/10 01:27:49;;;;;;;8.30;4.22;;;10.40;99.90;;;;;;5032960;28;20048;-71
2021/10/10 01:30:53;;;;;;;8.50;4.47;;;10.30;99.90;;;;;;5033603;28;20459;-68
2021/10/10 01:33:57;;;;;;;8.07;4.78;;;10.30;99.90;;;;;;5031949;28;20048;-68
2021/10/10 01:37:01;;;;;;;8.23;4.45;;;10.30;99.90;;;;;;5037145;28;20048;-72
2021/10/10 01:40:06;;;;;;;10.20;4.70;;;10.30;99.90;;;;;;5031929;28;20400;-72
2021/10/10 01:43:11;;;;;;;9.88;4.03;;;10.30;99.90;;;;;;5031938;28;20033;-68
2021/10/10 01:46:15;;;;;;;8.38;4.50;;;10.30;99.90;;;;;;5035674;28;20060;-68
2021/10/10 01:49:19;;;;;;;6.22;3.92;;;10.30;99.90;;;;;;5032129;28;20052;-67
2021/10/10 01:52:23;;;;;;;8.93;4.30;;;10.50;99.20;;;;;;5032266;28;20053;-67
2021/10/10 01:55:28;;;;;;;7.07;4.30;;;10.50;99.90;;;;;;5037088;28;20060;-72
2021/10/10 01:58:32;;;;;;;5.45;3.90;;;10.40;99.90;;;;;;5031832;28;20044;-71
2021/10/10 02:01:36;;;;;;;12.02;4.60;;;10.40;99.90;;;;;;5031911;28;20511;-72
2021/10/10 02:04:41;;;;;;;10.68;4.45;;;10.30;99.80;;;;;;5037617;28;20048;-69
2021/10/10 02:07:46;;;;;;;9.68;4.00;;;10.40;99.40;;;;;;5050994;28;20052;-73
2021/10/10 02:10:50;;;;;;;7.10;3.75;;;10.40;99.90;;;;;;5050857;28;20048;-71
2021/10/10 02:13:54;;;;;;;10.55;4.35;;;10.60;99.40;;;;;;5038171;28;20045;-69
2021/10/10 02:16:58;;;;;;;8.40;4.25;;;10.60;99.70;;;;;;5030740;28;20044;-72
2021/10/10 02:20:04;;;;;;;9.13;4.00;;;10.40;99.80;;;;;;5031708;28;20049;-71
2021/10/10 02:23:12;;;;;;;10.32;4.97;;;10.30;99.90;;;;;;5046575;28;20052;-71
2021/10/10 02:26:18;;;;;;;12.30;3.97;;;10.20;99.90;;;;;;5047257;28;20045;-71
2021/10/10 02:29:23;;;;;;;9.55;4.15;;;10.20;99.90;;;;;;5031315;28;20044;-71
2021/10/10 02:32:27;;;;;;;13.52;4.43;;;10.20;99.90;;;;;;5033382;28;20048;-69
2021/10/10 02:35:31;;;;;;;8.63;4.22;;;10.20;99.90;;;;;;5045789;28;20052;-67
2021/10/10 02:38:35;;;;;;;8.68;4.63;;;10.20;99.90;;;;;;5051604;28;20052;-71
2021/10/10 02:41:39;;;;;;;10.18;4.40;;;10.20;99.90;;;;;;5051168;28;20040;-71
2021/10/10 02:44:43;;;;;;;8.63;4.10;;;10.10;99.90;;;;;;5045825;28;20440;-69
2021/10/10 02:47:48;;;;;;;9.60;4.70;;;10.10;99.90;;;;;;5050715;28;20063;-71
2021/10/10 02:50:54;;;;;;;7.22;4.47;;;10.10;99.90;;;;;;5031420;28;20053;-71
2021/10/10 02:53:58;;;;;;;8.05;4.15;;;10.10;99.90;;;;;;5040207;28;20071;-71
2021/10/10 02:57:04;;;;;;;8.25;4.65;;;10.30;99.90;;;;;;5050816;28;20051;-71
2021/10/10 03:00:09;;;;;;;11.02;3.95;;;10.30;99.80;;;;;;5031211;28;20044;-71
2021/10/10 03:03:13;;;;;;;14.48;4.50;;;10.30;99.50;;;;;;5034863;28;20044;-68
2021/10/10 03:06:18;;;;;;;9.68;4.30;;;10.40;99.40;;;;;;5031981;28;20095;-68
2021/10/10 03:09:23;;;;;;;7.30;3.95;;;10.50;98.90;;;;;;5029885;28;20043;-71
2021/10/10 03:12:27;;;;;;;10.43;4.13;;;10.60;99.10;;;;;;5030137;28;20049;-69
2021/10/10 03:15:31;;;;;;;10.88;4.38;;;10.50;99.20;;;;;;5035342;28;20513;-69
2021/10/10 03:18:34;;;;;;;11.82;4.50;;;10.70;99.20;;;;;;5050458;28;20407;-71
2021/10/10 03:21:38;;;;;;;7.38;4.30;;;10.70;98.90;;;;;;5033185;28;20490;-69
2021/10/10 03:24:45;;;;;;;7.60;3.90;;;10.70;99.30;;;;;;5032348;28;20032;-68
2021/10/10 03:27:49;;;;;;;11.75;4.70;;;10.60;98.90;;;;;;5050899;28;20037;-69
2021/10/10 03:30:53;;;;;;;12.50;4.63;;;10.70;98.70;;;;;;5050129;28;20415;-71
2021/10/10 03:33:57;;;;;;;6.93;4.30;;;10.60;98.90;;;;;;5045291;28;20517;-71
2021/10/10 03:37:02;;;;;;;5.93;4.07;;;10.50;99.30;;;;;;5050599;28;20040;-68
2021/10/10 03:40:09;;;;;;;12.77;4.93;;;10.40;99.70;;;;;;5049710;28;20062;-69
2021/10/10 03:43:13;;;;;;;8.40;4.03;;;10.20;99.70;;;;;;5045034;28;20391;-68
2021/10/10 03:46:17;;;;;;;10.02;3.97;;;10.20;99.80;;;;;;5050902;28;20055;-68
2021/10/10 03:49:21;;;;;;;9.90;4.75;;;10.10;99.90;;;;;;5050517;28;20052;-71
2021/10/10 03:52:25;;;;;;;10.38;4.50;;;10.00;99.90;;;;;;5041864;28;20058;-71
2021/10/10 03:55:34;;;;;;;8.00;4.75;;;9.90;99.90;;;;;;5030366;28;20048;-70
2021/10/10 03:58:39;;;;;;;9.60;5.05;;;9.80;99.90;;;;;;5030028;28;20037;-68
2021/10/10 04:01:43;;;;;;;9.95;4.32;;;9.70;99.90;;;;;;5040807;28;20037;-69
2021/10/10 04:04:48;;;;;;;9.15;4.82;;;9.60;99.90;;;;;;5046381;28;20049;-72
2021/10/10 04:07:55;;;;;;;10.55;4.85;;;9.50;99.90;;;;;;5029528;28;20064;-71
2021/10/10 04:11:00;;;;;;;9.85;5.50;;;9.60;99.90;;;;;;5048214;28;20130;-71
2021/10/10 04:14:04;;;;;;;11.77;5.18;;;9.60;99.90;;;;;;5042627;28;20479;-69
2021/10/10 04:17:08;;;;;;;9.60;5.40;;;9.60;99.90;;;;;;5030106;28;20037;-68
2021/10/10 04:20:14;;;;;;;9.15;5.38;;;9.60;99.90;;;;;;5029339;28;20045;-68
2021/10/10 04:23:18;;;;;;;14.73;5.38;;;9.60;99.90;;;;;;5030319;28;20025;-71
2021/10/10 04:26:23;;;;;;;8.15;5.18;;;9.50;99.90;;;;;;5029987;28;20389;-71
2021/10/10 04:29:27;;;;;;;9.20;6.03;;;9.50;99.90;;;;;;5029322;28;20045;-71
2021/10/10 04:32:31;;;;;;;13.35;5.47;;;9.50;99.90;;;;;;5040908;28;20045;-72
2021/10/10 04:35:37;;;;;;;8.60;5.78;;;9.50;99.90;;;;;;5053903;28;20053;-71
2021/10/10 04:38:41;;;;;;;9.60;6.25;;;9.60;99.90;;;;;;5034574;28;20042;-71
2021/10/10 04:41:45;;;;;;;10.98;6.28;;;9.50;99.90;;;;;;5038395;28;20041;-71
2021/10/10 04:44:49;;;;;;;19.58;7.00;;;9.60;99.90;;;;;;5035956;28;20400;-71
2021/10/10 04:47:53;;;;;;;15.90;7.75;;;9.50;99.90;;;;;;5054030;28;20056;-71
2021/10/10 04:50:57;;;;;;;17.98;6.28;;;9.50;99.90;;;;;;5038459;28;20396;-71
2021/10/10 04:54:01;;;;;;;12.48;6.75;;;9.60;99.90;;;;;;5033809;28;20052;-72
2021/10/10 04:57:05;;;;;;;12.85;6.40;;;9.60;99.90;;;;;;5033955;28;20398;-72
2021/10/10 05:00:10;;;;;;;14.18;5.65;;;9.60;99.90;;;;;;5049780;28;20048;-71
2021/10/10 05:03:14;;;;;;;13.73;6.53;;;9.70;99.90;;;;;;5048532;28;20392;-70
2021/10/10 05:06:18;;;;;;;19.73;6.78;;;9.70;99.90;;;;;;5053625;28;20498;-72
2021/10/10 05:09:21;;;;;;;9.38;6.00;;;9.70;99.90;;;;;;5033489;28;20052;-70
2021/10/10 05:12:26;;;;;;;14.10;6.60;;;9.70;99.90;;;;;;5038077;28;20049;-73
2021/10/10 05:15:30;;;;;;;14.88;6.20;;;9.70;99.90;;;;;;5034122;28;20498;-70
2021/10/10 05:18:34;;;;;;;12.43;6.05;;;9.60;99.90;;;;;;5033562;28;20044;-71
2021/10/10 05:21:38;;;;;;;21.50;7.40;;;9.60;99.90;;;;;;5043815;28;20052;-71
2021/10/10 05:24:43;;;;;;;10.02;6.32;;;9.50;99.90;;;;;;5053551;28;20387;-71
2021/10/10 05:27:47;;;;;;;14.38;7.35;;;9.50;99.90;;;;;;5032725;28;20090;-71
2021/10/10 05:30:51;;;;;;;19.42;7.30;;;9.40;99.90;;;;;;5037016;28;20113;-71
2021/10/10 05:33:55;;;;;;;14.25;6.68;;;9.40;99.90;;;;;;5032843;28;20400;-71
2021/10/10 05:36:59;;;;;;;13.82;7.07;;;9.50;99.90;;;;;;5032915;28;20507;-72
2021/10/10 05:40:04;;;;;;;11.77;7.07;;;9.60;99.90;;;;;;5045089;28;20388;-71
2021/10/10 05:43:08;;;;;;;17.25;6.85;;;9.70;99.90;;;;;;5051804;28;20044;-71
2021/10/10 05:46:12;;;;;;;15.23;7.00;;;9.80;99.90;;;;;;5032193;28;20044;-71
2021/10/10 05:49:16;;;;;;;15.27;7.35;;;9.80;99.90;;;;;;5037354;28;20048;-72
2021/10/10 05:52:24;;;;;;;20.73;6.97;;;9.90;99.90;;;;;;5033489;28;20052;-72
2021/10/10 05:55:27;;;;;;;14.15;7.15;;;9.90;99.90;;;;;;5032810;28;20445;-73
2021/10/10 05:58:39;;;;;;;13.30;7.28;;;9.90;99.90;;;;;;5032338;28;20049;-72
2021/10/10 06:01:43;;;;;;;19.30;6.85;;;10.00;99.90;;;;;;5036455;28;20361;-71
2021/10/10 06:04:47;;;;;;;15.43;7.43;;;10.00;99.90;;;;;;5033304;28;20048;-71
2021/10/10 06:07:51;;;;;;;16.98;7.38;;;10.10;99.90;;;;;;5048828;28;20051;-72
2021/10/10 06:10:55;;;;;;;14.60;7.30;;;10.30;99.90;;;;;;5047155;28;20052;-71
2021/10/10 06:14:00;;;;;;;24.75;6.68;;;12.30;99.90;;;;;;5053251;28;20067;-71
2021/10/10 06:17:06;;;;;;;14.52;6.43;;;14.60;99.90;;;;;;5033065;28;20052;-71
2021/10/10 06:20:10;;;;;;;15.18;6.00;;;16.30;98.00;;;;;;5042723;28;20288;-72
2021/10/10 06:23:15;;;;;;;15.15;6.10;;;17.20;96.40;;;;;;5051777;28;20045;-72
2021/10/10 06:26:19;;;;;;;11.68;5.82;;;16.20;95.90;;;;;;5032852;28;20076;-71
2021/10/10 06:29:25;;;;;;;15.07;6.30;;;15.30;97.30;;;;;;5039742;28;20052;-72
2021/10/10 06:32:29;;;;;;;15.65;5.78;;;16.10;96.50;;;;;;5049377;28;20394;-72
2021/10/10 06:35:33;;;;;;;9.52;4.82;;;16.90;95.60;;;;;;5032596;28;20056;-72
2021/10/10 06:38:37;;;;;;;15.63;5.90;;;17.20;95.00;;;;;;5043438;28;20043;-72
2021/10/10 06:41:42;;;;;;;17.55;5.97;;;18.20;94.20;;;;;;5047054;28;20053;-72
2021/10/10 06:44:46;;;;;;;12.70;5.30;;;18.90;93.30;;;;;;5031902;28;20060;-72
2021/10/10 06:47:50;;;;;;;12.63;5.85;;;19.90;92.40;;;;;;5049393;28;20048;-72
2021/10/10 06:50:54;;;;;;;14.23;5.43;;;19.10;91.90;;;;;;5049554;28;20039;-72
2021/10/10 06:53:58;;;;;;;10.93;5.60;;;19.10;91.80;;;;;;5031386;28;20068;-72
2021/10/10 06:57:02;;;;;;;11.35;5.82;;;17.60;92.70;;;;;;5047468;28;20119;-71
2021/10/10 07:00:06;;;;;;;11.93;5.65;;;16.10;94.40;;;;;;5050769;28;20056;-72
2021/10/10 07:03:12;;;;;;;17.60;6.70;;;14.90;96.30;;;;;;5051679;28;20047;-71
2021/10/10 07:06:16;;;;;;;13.93;6.53;;;14.10;97.20;;;;;;5050295;28;20055;-72
2021/10/10 07:09:20;;;;;;;12.55;6.10;;;13.60;97.90;;;;;;5038876;28;20044;-72
2021/10/10 07:12:24;;;;;;;14.90;6.78;;;13.20;98.60;;;;;;5032416;28;20056;-71
2021/10/10 07:15:28;;;;;;;11.10;6.63;;;13.10;99.10;;;;;;5031735;28;20048;-69
2021/10/10 07:18:43;;;;;;;14.25;6.72;;;12.90;99.60;;;;;;5044176;28;20048;-69
2021/10/10 07:21:59;;;;;;;16.88;6.28;;;12.80;99.60;;;;;;5049580;28;20079;-69
2021/10/10 07:25:04;;;;;;;13.27;6.10;;;12.70;99.50;;;;;;5031868;28;20129;-70
2021/10/10 07:28:09;;;;;;;15.60;6.60;;;12.80;99.70;;;;;;5030724;28;20045;-70
2021/10/10 07:31:13;;;;;;;11.00;6.05;;;12.80;99.60;;;;;;5032598;28;20056;-69
2021/10/10 07:34:18;;;;;;;11.88;6.50;;;12.80;98.70;;;;;;5051014;28;20056;-69
2021/10/10 07:37:22;;;;;;;15.88;6.40;;;12.80;99.10;;;;;;5046074;28;20510;-69
2021/10/10 07:40:28;;;;;;;12.05;5.88;;;12.70;99.30;;;;;;5046992;28;20051;-69
2021/10/10 07:43:33;;;;;;;13.10;5.97;;;12.70;99.40;;;;;;5050397;28;20036;-69
2021/10/10 07:46:41;;;;;;;11.00;5.93;;;12.60;99.40;;;;;;5028809;28;20044;-69
2021/10/10 07:49:45;;;;;;;15.85;6.18;;;12.60;99.30;;;;;;5031813;28;20075;-69
2021/10/10 07:52:50;;;;;;;11.23;6.28;;;12.60;99.40;;;;;;5031156;28;20069;-69
2021/10/10 07:55:55;;;;;;;12.85;6.30;;;12.60;99.40;;;;;;5032945;28;20639;-69
2021/10/10 07:58:59;;;;;;;11.57;5.95;;;12.80;99.00;;;;;;5031503;28;20045;-69
2021/10/10 08:02:03;;;;;;;15.43;5.97;;;12.50;98.70;;;;;;5030815;28;20052;-69
2021/10/10 08:05:11;;;;;;;14.95;6.50;;;12.80;99.10;;;;;;5033527;28;20044;-69
2021/10/10 08:08:15;;;;;;;15.80;7.55;;;13.10;98.30;;;;;;5045256;28;20035;-69
2021/10/10 08:11:19;;;;;;;16.58;6.50;;;13.40;97.80;;;;;;5055328;28;20051;-68
2021/10/10 08:14:23;;;;;;;14.55;7.65;;;13.00;98.40;;;;;;5035890;28;20056;-69
2021/10/10 08:17:27;;;;;;;11.40;5.70;;;13.20;98.20;;;;;;5048491;28;20043;-68
2021/10/10 08:20:31;;;;;;;12.95;6.70;;;12.90;98.40;;;;;;5041383;28;20400;-70
2021/10/10 08:23:35;;;;;;;11.73;5.90;;;13.40;98.60;;;;;;5034786;28;20037;-70
2021/10/10 08:26:39;;;;;;;11.88;5.82;;;13.90;97.30;;;;;;5037779;28;20068;-70
2021/10/10 08:29:43;;;;;;;19.77;5.90;;;14.30;96.90;;;;;;5033972;28;20095;-70
2021/10/10 08:32:47;;;;;;;9.80;5.30;;;14.70;96.00;;;;;;5034209;28;20527;-70
2021/10/10 08:35:51;;;;;;;8.95;5.57;;;14.80;95.50;;;;;;5034491;28;20503;-70
2021/10/10 08:38:55;;;;;;;9.15;5.45;;;15.20;95.10;;;;;;5033646;28;20404;-70
2021/10/10 08:42:00;;;;;;;17.77;5.90;;;15.40;94.70;;;;;;5034983;28;20036;-70
2021/10/10 08:45:15;;;;;;;13.63;5.78;;;15.40;94.50;;;;;;5034484;28;20045;-70
2021/10/10 08:48:27;;;;;;;11.88;5.40;;;15.90;94.60;;;;;;5048518;28;20526;-69
2021/10/10 08:51:35;;;;;;;12.15;5.85;;;16.80;93.20;;;;;;5049860;28;20407;-70
2021/10/10 08:54:39;;;;;;;12.07;4.28;;;17.60;92.70;;;;;;5033078;28;20045;-71
2021/10/10 08:57:44;;;;;;;8.90;4.38;;;21.20;89.80;;;;;;5050538;28;20052;-73
2021/10/10 09:00:52;;;;;;;9.07;3.88;;;24.70;82.20;;;;;;5046680;28;20052;-73
2021/10/10 09:03:56;;;;;;;7.97;4.10;;;26.00;76.60;;;;;;5021792;28;20060;-73
2021/10/10 09:07:00;;;;;;;9.15;3.75;;;27.50;74.00;;;;;;5033552;28;20494;-72
2021/10/10 09:10:25;;;;;;;11.45;4.07;;;28.30;70.80;;;;;;5037600;28;20044;-73
2021/10/10 09:13:34;;;;;;;8.23;3.53;;;30.30;68.30;;;;;;5053830;28;20048;-73
2021/10/10 09:16:39;;;;;;;8.55;4.00;;;31.70;63.70;;;;;;5031913;28;20384;-73
2021/10/10 09:19:51;;;;;;;7.20;3.17;;;32.80;62.50;;;;;;5047536;28;20048;-73
2021/10/10 09:22:56;;;;;;;11.15;3.33;;;33.60;59.30;;;;;;5053727;28;20040;-73
2021/10/10 09:26:03;;;;;;;5.38;2.80;;;33.40;58.80;;;;;;5033325;28;20267;-73
2021/10/10 09:29:07;;;;;;;11.43;3.58;;;32.40;57.40;;;;;;5036754;28;20056;-72
2021/10/10 09:32:14;;;;;;;6.65;2.70;;;31.80;58.00;;;;;;5035019;28;20053;-74
2021/10/10 09:35:28;;;;;;;7.80;3.25;;;31.40;57.50;;;;;;5053066;28;20044;-72
2021/10/10 09:38:42;;;;;;;5.72;3.00;;;30.50;57.00;;;;;;5051905;28;20052;-73
2021/10/10 09:41:54;;;;;;;12.02;3.45;;;31.00;57.30;;;;;;5043548;28;20388;-74
2021/10/10 09:48:44;;;;;;;10.02;3.63;;;30.50;57.20;;;;;;5052379;28;20075;-72
2021/10/10 09:51:48;;;;;;;10.95;2.80;;;30.60;57.30;;;;;;5051178;28;20045;-73
2021/10/10 09:54:58;;;;;;;8.90;3.38;;;30.80;57.30;;;;;;5051533;28;20048;-73
2021/10/10 09:58:03;;;;;;;6.20;2.70;;;32.00;55.80;;;;;;5051891;28;20040;-74
2021/10/10 10:01:23;;;;;;;8.20;3.40;;;32.70;56.10;;;;;;5032610;28;20503;-73
2021/10/10 10:04:27;;;;;;;4.93;2.90;;;33.00;55.50;;;;;;5032877;28;20044;-74
2021/10/10 10:07:31;;;;;;;6.63;2.65;;;34.10;54.60;;;;;;5032258;28;20079;-74
2021/10/10 10:10:35;;;;;;;10.20;2.83;;;33.30;54.00;;;;;;5039591;28;20048;-72
2021/10/10 10:13:40;;;;;;;4.03;2.70;;;32.80;53.60;;;;;;5047104;28;20051;-74
2021/10/10 10:16:49;;;;;;;8.90;3.08;;;33.60;53.70;;;;;;5051678;28;20518;-73
2021/10/10 10:19:57;;;;;;;7.20;2.60;;;32.90;53.10;;;;;;5052242;28;20346;-73
2021/10/10 10:23:01;;;;;;;4.72;2.40;;;34.10;54.00;;;;;;5047381;28;20415;-73
2021/10/10 10:26:05;;;;;;;7.53;2.95;;;35.60;53.30;;;;;;5050781;28;20522;-76
2021/10/10 10:29:26;;;;;;;5.00;2.78;;;35.90;52.20;;;;;;5051961;28;20048;-76
2021/10/10 10:32:31;;;;;;;7.22;2.78;;;36.40;51.60;;;;;;5051423;28;20036;-71
2021/10/10 10:35:44;;;;;;;6.43;2.28;;;37.10;50.50;;;;;;5043582;28;20053;-70
2021/10/10 10:38:49;;;;;;;8.02;2.55;;;37.80;50.50;;;;;;5031690;28;20070;-70
2021/10/10 10:41:53;;;;;;;9.50;2.70;;;36.80;50.00;;;;;;5032196;28;20048;-71
2021/10/10 10:44:57;;;;;;;6.07;2.67;;;35.70;51.10;;;;;;5034667;28;20052;-71
2021/10/10 10:48:04;;;;;;;9.50;3.05;;;35.00;50.50;;;;;;5030438;28;20052;-71
2021/10/10 10:51:22;;;;;;;5.95;3.13;;;34.00;50.60;;;;;;5031798;28;20503;-71
2021/10/10 10:54:39;;;;;;;6.68;2.45;;;34.90;51.00;;;;;;5046501;28;20049;-71
2021/10/10 10:58:05;;;;;;;6.35;2.75;;;36.10;49.80;;;;;;5044328;28;20040;-72
2021/10/10 11:01:09;;;;;;;4.38;2.25;;;36.80;49.80;;;;;;5031709;28;20048;-72
2021/10/10 11:04:28;;;;;;;11.02;2.80;;;37.70;48.80;;;;;;5031050;28;20400;-70
2021/10/10 11:07:33;;;;;;;7.93;2.97;;;34.80;48.70;;;;;;5031141;28;20049;-73
2021/10/10 11:10:38;;;;;;;5.15;2.75;;;32.70;50.60;;;;;;5030434;28;20041;-73
2021/10/10 11:14:02;;;;;;;6.15;2.85;;;32.50;51.10;;;;;;5031676;28;20036;-70
2021/10/10 11:17:08;;;;;;;8.48;2.97;;;30.30;52.90;;;;;;5030931;28;20041;-72
2021/10/10 11:20:13;;;;;;;8.55;3.60;;;28.90;54.00;;;;;;5034272;28;20087;-69
2021/10/10 11:23:18;;;;;;;6.40;3.13;;;25.70;55.60;;;;;;5031471;28;20052;-70
2021/10/10 11:26:23;;;;;;;6.53;2.83;;;24.50;57.80;;;;;;5030736;28;20396;-70
2021/10/10 11:29:28;;;;;;;7.55;3.00;;;23.60;59.50;;;;;;5041648;28;20052;-73
2021/10/10 11:32:49;;;;;;;5.15;2.90;;;24.40;59.20;;;;;;5050121;28;20060;-74
2021/10/10 11:35:53;;;;;;;4.78;2.97;;;25.30;57.20;;;;;;5031143;28;20040;-73
2021/10/10 11:38:57;;;;;;;10.80;3.17;;;24.30;58.30;;;;;;5033332;28;20056;-73
2021/10/10 11:42:10;;;;;;;7.25;3.28;;;24.60;58.10;;;;;;5033949;28;20391;-73
2021/10/10 11:45:22;;;;;;;7.28;3.20;;;25.80;56.60;;;;;;5030465;28;20033;-72
2021/10/10 11:48:37;;;;;;;9.52;3.03;;;25.90;56.90;;;;;;5046930;28;20044;-72
2021/10/10 11:51:47;;;;;;;7.18;2.90;;;26.60;56.20;;;;;;5045506;28;20493;-74
2021/10/10 11:55:06;;;;;;;8.75;2.90;;;28.20;56.50;;;;;;5049032;28;20052;-73
2021/10/10 11:58:12;;;;;;;6.13;2.80;;;30.20;55.00;;;;;;5029935;28;20121;-73
2021/10/10 12:01:16;;;;;;;5.72;2.67;;;30.40;53.90;;;;;;5042573;28;20123;-72
2021/10/10 12:04:21;;;;;;;5.00;3.08;;;30.10;54.10;;;;;;5049386;28;20052;-72
2021/10/10 12:07:33;;;;;;;5.05;2.92;;;32.10;53.10;;;;;;5050800;28;20403;-74
2021/10/10 12:10:37;;;;;;;5.18;2.42;;;31.70;53.00;;;;;;5030232;28;20044;-71
2021/10/10 12:13:56;;;;;;;8.40;2.88;;;31.70;53.00;;;;;;5033490;28;20044;-73
2021/10/10 12:17:00;;;;;;;4.28;2.28;;;31.60;52.20;;;;;;5030138;28;20053;-71
2021/10/10 12:20:29;;;;;;;6.25;2.47;;;32.70;52.20;;;;;;5049947;28;20036;-70
2021/10/10 12:23:38;;;;;;;7.20;3.05;;;33.30;51.70;;;;;;5045698;28;20044;-71
2021/10/10 12:26:44;;;;;;;3.92;2.60;;;31.90;51.90;;;;;;5048982;28;20387;-70
2021/10/10 12:29:48;;;;;;;6.20;3.03;;;32.50;53.20;;;;;;5049176;28;20361;-71
2021/10/10 12:32:52;;;;;;;6.72;2.63;;;32.80;51.70;;;;;;5048598;28;20048;-70
2021/10/10 12:36:26;;;;;;;3.70;2.17;;;33.00;51.60;;;;;;5042477;28;20043;-71
2021/10/10 12:39:41;;;;;;;4.80;2.15;;;33.00;51.50;;;;;;5028814;28;20521;-70
2021/10/10 12:42:47;;;;;;;15.57;3.38;;;31.60;51.40;;;;;;5028665;28;20052;-70
2021/10/10 12:46:00;;;;;;;5.78;3.15;;;30.70;53.00;;;;;;5042756;28;20047;-70
2021/10/10 12:49:05;;;;;;;4.28;2.22;;;30.70;53.20;;;;;;5044304;28;20522;-71
2021/10/10 12:52:12;;;;;;;9.35;3.00;;;31.90;52.40;;;;;;5030887;28;20045;-72
2021/10/10 12:55:27;;;;;;;7.68;2.72;;;32.20;52.30;;;;;;5032774;28;20502;-71
2021/10/10 12:58:44;;;;;;;8.50;2.35;;;31.20;52.60;;;;;;5036059;28;20048;-72
2021/10/10 13:01:49;;;;;;;7.28;2.63;;;29.10;54.10;;;;;;5053770;28;20040;-73
2021/10/10 13:04:53;;;;;;;7.13;2.75;;;27.70;55.10;;;;;;5052058;28;20510;-72
2021/10/10 13:07:57;;;;;;;6.40;3.00;;;26.20;56.70;;;;;;5051329;28;20044;-72
2021/10/10 13:11:01;;;;;;;7.20;2.60;;;24.00;58.80;;;;;;5052579;28;20506;-72
2021/10/10 13:14:09;;;;;;;6.10;2.78;;;24.60;59.10;;;;;;5052967;28;20040;-72
2021/10/10 13:17:13;;;;;;;10.85;2.70;;;26.60;57.70;;;;;;5048310;28;20044;-73
2021/10/10 13:20:17;;;;;;;5.85;2.88;;;26.50;56.70;;;;;;5049292;28;20055;-69
2021/10/10 13:23:21;;;;;;;7.43;2.70;;;25.40;56.90;;;;;;5033114;28;20038;-70
2021/10/10 13:26:25;;;;;;;9.02;3.08;;;23.30;60.10;;;;;;5036490;28;20052;-71
2021/10/10 13:29:29;;;;;;;7.68;2.60;;;22.00;62.00;;;;;;5031729;28;20052;-68
2021/10/10 13:32:33;;;;;;;5.50;2.85;;;20.80;63.90;;;;;;5032827;28;20060;-74
2021/10/10 13:35:44;;;;;;;10.35;3.40;;;20.10;65.00;;;;;;5049509;28;20764;-72
2021/10/10 13:38:48;;;;;;;8.25;3.05;;;19.50;65.60;;;;;;5047461;28;20129;-73
2021/10/10 13:41:52;;;;;;;9.23;3.17;;;20.30;66.20;;;;;;5032634;28;20136;-74
2021/10/10 13:44:56;;;;;;;8.20;3.10;;;21.30;63.10;;;;;;5049710;28;20040;-73
2021/10/10 13:48:00;;;;;;;5.95;2.70;;;23.40;60.80;;;;;;5050488;28;20522;-71
2021/10/10 13:51:06;;;;;;;7.35;3.30;;;25.10;59.00;;;;;;5052456;28;20048;-73
2021/10/10 13:54:11;;;;;;;5.53;2.75;;;24.70;58.20;;;;;;5051493;28;20044;-74
2021/10/10 13:57:15;;;;;;;8.05;2.75;;;24.80;58.00;;;;;;5047564;28;20052;-73
2021/10/10 14:00:20;;;;;;;6.80;2.47;;;25.00;58.70;;;;;;5051405;28;20494;-71
2021/10/10 14:03:24;;;;;;;4.43;2.17;;;24.40;58.90;;;;;;5032259;28;20040;-72
2021/10/10 14:06:28;;;;;;;8.05;2.63;;;23.80;59.40;;;;;;5035758;28;20056;-69
2021/10/10 14:09:32;;;;;;;6.20;2.92;;;22.60;61.40;;;;;;5033587;28;20060;-70
2021/10/10 14:12:36;;;;;;;11.70;2.50;;;23.00;62.00;;;;;;5052017;28;20056;-69
2021/10/10 14:15:42;;;;;;;3.58;2.50;;;22.20;61.40;;;;;;5034499;28;20043;-71
2021/10/10 14:18:47;;;;;;;9.35;2.78;;;21.20;63.40;;;;;;5034933;28;20071;-73
2021/10/10 14:21:51;;;;;;;11.55;3.15;;;20.60;64.80;;;;;;5031954;28;20048;-73
2021/10/10 14:24:55;;;;;;;11.63;3.58;;;19.70;66.40;;;;;;5034849;28;20052;-73
2021/10/10 14:27:59;;;;;;;9.75;3.08;;;18.90;68.40;;;;;;5034473;28;20060;-73
2021/10/10 14:31:03;;;;;;;5.05;2.30;;;18.60;69.70;;;;;;5032036;28;20056;-71
2021/10/10 14:34:08;;;;;;;7.45;2.70;;;18.40;70.30;;;;;;5048492;28;20040;-70
2021/10/10 14:37:11;;;;;;;5.15;3.30;;;19.10;68.90;;;;;;5041287;28;20049;-73
2021/10/10 14:40:16;;;;;;;7.25;2.58;;;19.70;66.40;;;;;;5031592;28;20044;-75
2021/10/10 14:43:23;;;;;;;5.40;2.35;;;20.10;65.70;;;;;;5031367;28;20392;-73
2021/10/10 14:46:29;;;;;;;7.03;2.47;;;20.70;65.70;;;;;;5030807;28;20048;-74
2021/10/10 14:49:35;;;;;;;10.50;2.50;;;21.00;65.20;;;;;;5030795;28;20427;-73
2021/10/10 14:52:40;;;;;;;8.45;2.50;;;21.00;64.90;;;;;;5031634;28;20346;-70
2021/10/10 14:55:45;;;;;;;6.88;2.75;;;21.30;63.80;;;;;;5034503;28;20048;-71
2021/10/10 14:58:49;;;;;;;7.07;2.70;;;21.40;63.40;;;;;;5032551;28;20511;-71
2021/10/10 15:01:53;;;;;;;7.88;3.78;;;21.30;64.00;;;;;;5030835;28;20052;-71
2021/10/10 15:05:04;;;;;;;5.25;2.67;;;21.50;63.90;;;;;;5046289;28;20087;-70
2021/10/10 15:08:10;;;;;;;7.53;2.78;;;21.30;64.00;;;;;;5045541;28;20144;-74
2021/10/10 15:11:13;;;;;;;5.13;2.85;;;20.40;64.70;;;;;;5050849;28;20044;-74
2021/10/10 15:14:17;;;;;;;6.95;2.83;;;19.70;65.70;;;;;;5030925;28;20036;-70
2021/10/10 15:17:23;;;;;;;5.50;2.08;;;19.00;67.20;;;;;;5037210;28;20052;-70
2021/10/10 15:20:29;;;;;;;7.35;2.85;;;18.40;67.60;;;;;;5049331;28;20052;-71
2021/10/10 15:23:42;;;;;;;3.15;2.10;;;18.20;67.90;;;;;;5032495;28;20045;-71
2021/10/10 15:26:46;;;;;;;7.15;2.95;;;18.30;68.50;;;;;;5040415;28;20388;-71
2021/10/10 15:29:51;;;;;;;8.18;3.13;;;18.20;68.20;;;;;;5049970;28;20038;-71
2021/10/10 15:32:55;;;;;;;4.05;2.45;;;17.80;68.70;;;;;;5030594;28;20515;-74
2021/10/10 15:35:59;;;;;;;5.55;2.55;;;17.50;68.30;;;;;;5033197;28;20053;-73
2021/10/10 15:39:03;;;;;;;4.28;2.72;;;17.10;69.80;;;;;;5030678;28;20045;-73
2021/10/10 15:42:08;;;;;;;7.93;2.75;;;16.40;71.50;;;;;;5030377;28;20052;-73
2021/10/10 15:45:12;;;;;;;13.02;2.63;;;15.70;72.90;;;;;;5040926;28;20047;-72
2021/10/10 15:48:17;;;;;;;6.57;2.75;;;15.50;74.10;;;;;;5044508;28;20049;-73
2021/10/10 15:51:21;;;;;;;3.97;2.22;;;15.40;75.10;;;;;;5030537;28;20048;-72
2021/10/10 15:54:25;;;;;;;10.23;2.65;;;15.10;75.30;;;;;;5046568;28;20036;-70
2021/10/10 15:57:29;;;;;;;3.03;2.45;;;14.90;75.90;;;;;;5046531;28;20506;-70
2021/10/10 16:00:35;;;;;;;7.43;2.80;;;14.50;76.60;;;;;;5029583;28;20057;-72
2021/10/10 16:03:39;;;;;;;4.70;2.65;;;14.30;77.60;;;;;;5033268;28;20395;-70
2021/10/10 16:06:43;;;;;;;4.55;2.30;;;14.10;77.80;;;;;;5037014;28;20426;-72